^^
Grace C. Lehan Memorial Weather Station Historical Data
Daily Summary for December 10, 2021 Units:  Metric    English   Both
Daily Weekly Monthly Yearly
  High: Low: Average:
Temperature: 6.8 °C 0.2 °C 2.4 °C
Dew Point: 1.9 °C -2.5 °C -0.9 °C
Humidity: 91% 69.6% 79%
Wind Speed: 1.9km/h 0km/h 0km/h
Wind Gust: 6.4km/h - -
Wind- - NW
Pressure: 1023.2 hPa 1019.2 hPa -
Precipitation: 0.25 mm    
 
 
Tabular Data for December 10, 2021
Time Temperature Dew Point Pressure Wind Wind Speed Wind Gust Humidity Rainfall Rate (Hourly) solar
00:04 0.6 °C -2.4 °C 1022.9 hPa Calm     80% 0 mm 0 W/m2
00:09 0.6 °C -2.4 °C 1022.9 hPa Calm     80% 0 mm 0 W/m2
00:14 0.6 °C -2.4 °C 1022.9 hPa Calm     80% 0 mm 0 W/m2
00:19 0.6 °C -2.3 °C 1022.9 hPa Calm     80.9% 0 mm 0 W/m2
00:24 0.7 °C -2.2 °C 1022.9 hPa Calm     81.1% 0 mm 0 W/m2
00:29 0.7 °C -2.1 °C 1022.6 hPa Calm     81.9% 0 mm 0 W/m2
00:34 0.7 °C -2.2 °C 1022.9 hPa Calm     81% 0 mm 0 W/m2
00:39 0.7 °C -2.2 °C 1022.9 hPa Calm     81.4% 0 mm 0 W/m2
00:44 0.7 °C -2.1 °C 1022.9 hPa Calm     82% 0 mm 0 W/m2
00:49 0.7 °C -2.1 °C 1022.9 hPa Calm     81.6% 0 mm 0 W/m2
00:54 0.7 °C -2.2 °C 1022.9 hPa Calm     81.1% 0 mm 0 W/m2
00:59 0.7 °C -2.1 °C 1022.6 hPa Calm     82% 0 mm 0 W/m2
01:04 0.7 °C -2.1 °C 1022.9 hPa Calm     81.6% 0 mm 0 W/m2
01:09 0.7 °C -2.1 °C 1022.9 hPa Calm     81.8% 0 mm 0 W/m2
01:14 0.7 °C -2 °C 1022.9 hPa Calm     82% 0 mm 0 W/m2
01:19 0.7 °C -2 °C 1022.9 hPa Calm     82% 0 mm 0 W/m2
01:24 0.7 °C -2 °C 1023.2 hPa Calm     82% 0 mm 0 W/m2
01:29 0.7 °C -2 °C 1023.2 hPa Calm     82% 0 mm 0 W/m2
01:34 0.7 °C -1.9 °C 1023.2 hPa Calm     82.6% 0 mm 0 W/m2
01:39 0.7 °C -1.8 °C 1023.2 hPa Calm     83% 0 mm 0 W/m2
01:44 0.7 °C -1.9 °C 1023.2 hPa Calm     82.3% 0 mm 0 W/m2
01:49 0.7 °C -2.1 °C 1022.9 hPa Calm     82% 0 mm 0 W/m2
01:54 0.7 °C -2.1 °C 1022.9 hPa Calm     82% 0 mm 0 W/m2
01:59 0.6 °C -2.2 °C 1022.9 hPa Calm     81.5% 0 mm 0 W/m2
02:04 0.6 °C -2.3 °C 1022.9 hPa Calm     81% 0 mm 0 W/m2
02:09 0.6 °C -2.4 °C 1022.9 hPa Calm     80.4% 0 mm 0 W/m2
02:14 0.6 °C -2.5 °C 1022.6 hPa Calm     80% 0 mm 0 W/m2
02:19 0.6 °C -2.5 °C 1022.6 hPa Calm     80% 0 mm 0 W/m2
02:24 0.6 °C -2.4 °C 1022.9 hPa Calm     80% 0 mm 0 W/m2
02:29 0.6 °C -2.4 °C 1022.9 hPa Calm     80% 0 mm 0 W/m2
02:34 0.7 °C -2.3 °C 1022.9 hPa Calm     80.7% 0 mm 0 W/m2
02:39 0.7 °C -2.2 °C 1022.9 hPa Calm     81% 0 mm 0 W/m2
02:44 0.7 °C -2.1 °C 1022.9 hPa Calm     81.4% 0 mm 0 W/m2
02:49 0.7 °C -2 °C 1022.9 hPa Calm     82% 0 mm 0 W/m2
02:54 0.7 °C -2 °C 1022.9 hPa Calm     82% 0 mm 0 W/m2
02:59 0.7 °C -2 °C 1022.6 hPa Calm     82% 0 mm 0 W/m2
03:04 0.7 °C -2 °C 1022.9 hPa Calm     82% 0 mm 0 W/m2
03:09 0.7 °C -2 °C 1022.6 hPa Calm     82% 0 mm 0 W/m2
03:14 0.7 °C -2 °C 1022.6 hPa Calm     82% 0 mm 0 W/m2
03:19 0.7 °C -2 °C 1022.6 hPa Calm     82% 0 mm 0 W/m2
03:24 0.7 °C -2 °C 1022.6 hPa Calm     82% 0 mm 0 W/m2
03:29 0.7 °C -2.1 °C 1022.2 hPa Calm     81.6% 0 mm 0 W/m2
03:34 0.7 °C -2.2 °C 1022.2 hPa Calm     81.2% 0 mm 0 W/m2
03:39 0.7 °C -2.2 °C 1022.2 hPa Calm     81% 0 mm 0 W/m2
03:44 0.7 °C -2.2 °C 1022.2 hPa Calm     81% 0 mm 0 W/m2
03:49 0.7 °C -2.2 °C 1021.9 hPa Calm     81% 0 mm 0 W/m2
03:54 0.7 °C -2.2 °C 1021.9 hPa Calm     81% 0 mm 0 W/m2
03:59 0.7 °C -2.3 °C 1021.9 hPa Calm     80.5% 0 mm 0 W/m2
04:00 0.7 °C -2.2 °C 1021.9 hPa Calm     81% 0 mm 0 W/m2
04:09 0.7 °C -2.2 °C 1021.9 hPa Calm     81% 0 mm 0 W/m2
04:14 0.7 °C -2.1 °C 1021.9 hPa Calm     81% 0 mm 0 W/m2
04:19 0.7 °C -2.3 °C 1021.6 hPa Calm     80.3% 0 mm 0 W/m2
04:24 0.7 °C -2.3 °C 1021.6 hPa Calm     80% 0 mm 0 W/m2
04:29 0.8 °C -2.3 °C 1021.6 hPa Calm     80% 0 mm 0 W/m2
04:34 0.8 °C -2.4 °C 1021.6 hPa Calm     79.4% 0 mm 0 W/m2
04:39 0.7 °C -2.5 °C 1021.6 hPa Calm     79% 0 mm 0 W/m2
04:44 0.7 °C -2.5 °C 1021.6 hPa Calm     79% 0 mm 0 W/m2
04:49 0.7 °C -2.5 °C 1021.6 hPa Calm     79% 0 mm 0 W/m2
04:54 0.8 °C -2.3 °C 1021.6 hPa Calm     79.8% 0 mm 0 W/m2
04:59 0.8 °C -2.3 °C 1021.6 hPa Calm     80.1% 0 mm 0 W/m2
05:04 0.8 °C -2.1 °C 1021.6 hPa Calm     81% 0 mm 0 W/m2
05:09 0.8 °C -2.1 °C 1021.6 hPa Calm     81% 0 mm 0 W/m2
05:14 0.8 °C -2.1 °C 1021.9 hPa Calm     81% 0 mm 0 W/m2
05:19 0.8 °C -2.1 °C 1021.9 hPa Calm     81% 0 mm 0 W/m2
05:24 0.8 °C -2.1 °C 1021.9 hPa Calm     81.3% 0 mm 0 W/m2
05:29 0.8 °C -2.1 °C 1021.9 hPa Calm     81% 0 mm 0 W/m2
05:34 0.8 °C -2.1 °C 1021.6 hPa Calm     81% 0 mm 0 W/m2
05:39 0.8 °C -2.1 °C 1021.9 hPa Calm     81% 0 mm 0 W/m2
05:44 0.8 °C -2.1 °C 1021.6 hPa Calm     81% 0 mm 0 W/m2
05:49 0.8 °C -2.1 °C 1021.9 hPa Calm     81% 0 mm 0 W/m2
05:54 0.8 °C -2.1 °C 1021.9 hPa Calm     81% 0 mm 0 W/m2
05:59 0.8 °C -2.1 °C 1021.9 hPa Calm     81.3% 0 mm 0 W/m2
06:04 0.8 °C -1.9 °C 1021.9 hPa Calm     82% 0 mm 0 W/m2
06:09 0.8 °C -1.9 °C 1021.9 hPa Calm     82% 0 mm 0 W/m2
06:14 0.8 °C -1.9 °C 1021.9 hPa Calm     82% 0 mm 0 W/m2
06:19 0.8 °C -1.9 °C 1021.9 hPa Calm     82% 0 mm 0 W/m2
06:24 0.8 °C -1.9 °C 1021.9 hPa Calm     82% 0 mm 0 W/m2
06:29 0.8 °C -1.9 °C 1021.9 hPa Calm     82.3% 0 mm 0 W/m2
06:34 0.8 °C -1.7 °C 1021.9 hPa Calm     83% 0 mm 0 W/m2
06:39 0.8 °C -1.7 °C 1021.9 hPa Calm     83% 0 mm 0 W/m2
06:44 0.8 °C -1.6 °C 1021.6 hPa Calm     84% 0 mm 0 W/m2
06:49 0.8 °C -1.6 °C 1021.9 hPa Calm     83.7% 0 mm 0 W/m2
06:54 0.8 °C -1.7 °C 1021.9 hPa Calm     83% 0 mm 0 W/m2
06:59 0.8 °C -1.7 °C 1021.9 hPa Calm     83% 0 mm 0 W/m2
07:04 0.8 °C -1.9 °C 1021.9 hPa Calm     82% 0 mm 0 W/m2
07:09 0.8 °C -1.9 °C 1021.9 hPa Calm     82% 0 mm 0 W/m2
07:14 0.9 °C -1.8 °C 1021.9 hPa Calm     81.9% 0 mm 0 W/m2
07:19 0.9 °C -2 °C 1021.9 hPa Calm     81% 0 mm 0 W/m2
07:24 0.9 °C -1.9 °C 1021.9 hPa Calm     81% 0 mm 0 W/m2
07:29 1 °C -1.9 °C 1021.9 hPa Calm     81.1% 0 mm 5 W/m2
07:34 1.1 °C -1.7 °C 1021.9 hPa Calm     82% 0 mm 5 W/m2
07:39 1.1 °C -1.6 °C 1022.2 hPa Calm     81.8% 0 mm 5 W/m2
07:44 1.2 °C -1.7 °C 1022.2 hPa Calm     81.3% 0 mm 7 W/m2
07:49 1.2 °C -1.7 °C 1021.9 hPa Calm     81% 0 mm 9 W/m2
07:54 1.2 °C -1.7 °C 1021.9 hPa Calm     81% 0 mm 11 W/m2
07:59 1.3 °C -1.6 °C 1021.9 hPa Calm     80.9% 0 mm 12 W/m2
08:09 1.3 °C -1.8 °C 1021.9 hPa Calm     80% 0 mm 14 W/m2
08:14 1.3 °C -1.7 °C 1021.9 hPa Calm     80% 0 mm 16 W/m2
08:19 1.4 °C -1.7 °C 1021.9 hPa Calm     80% 0 mm 19 W/m2
08:24 1.4 °C -1.7 °C 1021.6 hPa Calm     79.8% 0 mm 25 W/m2
08:29 1.4 °C -1.6 °C 1021.9 hPa Calm     80% 0 mm 23 W/m2
08:34 1.6 °C -1.6 °C 1021.9 hPa Calm     80% 0 mm 25 W/m2
08:39 1.6 °C -1.5 °C 1021.9 hPa Calm     80% 0 mm 32 W/m2
08:44 1.7 °C -1.4 °C 1021.9 hPa Calm     80.3% 0 mm 33 W/m2
08:49 1.7 °C -1.2 °C 1021.9 hPa Calm     81% 0 mm 33 W/m2
08:54 1.7 °C -1.2 °C 1022.2 hPa Calm     80.8% 0 mm 35 W/m2
08:59 1.8 °C -1.1 °C 1022.2 hPa Calm     80.9% 0 mm 37 W/m2
09:04 1.8 °C -1.2 °C 1022.2 hPa NW 0.3 km/h 4.8 km/h 80% 0 mm 37 W/m2
09:09 1.8 °C -1.3 °C 1022.2 hPa Calm   4.8 km/h 79.4% 0 mm 32 W/m2
09:14 1.8 °C -1.4 °C 1022.2 hPa Calm   4.8 km/h 79% 0 mm 33 W/m2
09:19 1.9 °C -1.4 °C 1022.6 hPa Calm   4.8 km/h 79% 0 mm 33 W/m2
09:24 1.9 °C -1.3 °C 1022.6 hPa NW 0.5 km/h 4.8 km/h 79% 0 mm 28 W/m2
09:29 1.9 °C -1.3 °C 1022.9 hPa NW 0.8 km/h 4.8 km/h 78.9% 0 mm 37 W/m2
09:34 1.9 °C -1.4 °C 1022.6 hPa NW 0.8 km/h 4.8 km/h 78.1% 0 mm 42 W/m2
09:39 2 °C -1.4 °C 1022.6 hPa Calm   4.8 km/h 78.2% 0 mm 49 W/m2
09:44 2.1 °C -1.3 °C 1022.6 hPa NW 0.2 km/h 4.8 km/h 78.6% 0 mm 54 W/m2
09:49 2.1 °C -1.2 °C 1022.6 hPa Calm   4.8 km/h 79% 0 mm 56 W/m2
09:54 2.2 °C -1.1 °C 1022.6 hPa Calm   4.8 km/h 79% 0 mm 67 W/m2
09:59 2.2 °C -1.1 °C 1022.6 hPa Calm   4.8 km/h 78.5% 0 mm 74 W/m2
10:04 2.3 °C -1.3 °C 1022.6 hPa NW 0.2 km/h 4.8 km/h 77.3% 0 mm 74 W/m2
10:09 2.3 °C -1.3 °C 1022.6 hPa Calm   3.2 km/h 77% 0 mm 84 W/m2
10:14 2.4 °C -1.2 °C 1022.6 hPa NW 0.2 km/h 3.2 km/h 77% 0 mm 83 W/m2
10:19 2.4 °C -1.2 °C 1022.6 hPa Calm   3.2 km/h 77% 0 mm 88 W/m2
10:24 2.5 °C -1.2 °C 1022.6 hPa NW 0.3 km/h 3.2 km/h 76.6% 0 mm 105 W/m2
10:29 2.6 °C -1.4 °C 1022.2 hPa Calm   3.2 km/h 75.3% 0 mm 109 W/m2
10:34 2.6 °C -1.4 °C 1022.2 hPa NW 0.5 km/h 4.8 km/h 74.9% 0 mm 98 W/m2
10:39 2.7 °C -1.5 °C 1021.9 hPa Calm   4.8 km/h 74% 0 mm 113 W/m2
10:44 2.7 °C -1.4 °C 1021.9 hPa Calm   4.8 km/h 74.4% 0 mm 113 W/m2
10:49 2.7 °C -1.4 °C 1021.9 hPa Calm   4.8 km/h 74.3% 0 mm 123 W/m2
10:54 2.8 °C -1.3 °C 1021.9 hPa NW 0.2 km/h 4.8 km/h 74.9% 0 mm 135 W/m2
10:59 2.8 °C -1.2 °C 1021.9 hPa NW 0.3 km/h 4.8 km/h 75% 0 mm 142 W/m2
11:04 2.9 °C -1.2 °C 1021.9 hPa NW 0.5 km/h 4.8 km/h 74% 0 mm 134 W/m2
11:09 3 °C -1.2 °C 1021.9 hPa Calm   3.2 km/h 74% 0 mm 137 W/m2
11:14 3.1 °C -1.1 °C 1021.6 hPa Calm   3.2 km/h 74% 0 mm 158 W/m2
11:19 3.2 °C -1 °C 1021.2 hPa Calm   3.2 km/h 74% 0 mm 178 W/m2
11:24 3.3 °C -1.1 °C 1021.2 hPa Calm   3.2 km/h 73.1% 0 mm 176 W/m2
11:29 3.3 °C -1 °C 1021.2 hPa Calm   3.2 km/h 73% 0 mm 149 W/m2
11:34 3.4 °C -0.9 °C 1021.2 hPa Calm   3.2 km/h 73% 0 mm 155 W/m2
11:39 3.6 °C -0.8 °C 1020.9 hPa Calm     73% 0 mm 162 W/m2
11:44 3.6 °C -1 °C 1020.9 hPa Calm     71.7% 0 mm 163 W/m2
11:49 3.7 °C -0.9 °C 1020.9 hPa Calm     71.8% 0 mm 165 W/m2
11:54 3.8 °C -0.8 °C 1020.5 hPa Calm     72.2% 0 mm 181 W/m2
11:59 3.9 °C -0.8 °C 1020.5 hPa Calm     71.4% 0 mm 193 W/m2
12:00 3.9 °C -0.6 °C 1020.5 hPa Calm     72% 0 mm 186 W/m2
12:09 4.1 °C -1 °C 1020.5 hPa Calm     69.6% 0 mm 179 W/m2
12:14 4.2 °C -0.7 °C 1020.2 hPa Calm     70.7% 0 mm 155 W/m2
12:19 4.3 °C -0.5 °C 1020.2 hPa Calm     71% 0 mm 128 W/m2
12:24 4.4 °C -0.4 °C 1020.2 hPa Calm     71% 0 mm 151 W/m2
12:29 4.4 °C -0.4 °C 1020.5 hPa Calm     70.8% 0 mm 176 W/m2
12:34 4.6 °C -0.3 °C 1020.2 hPa Calm     71% 0.25 mm 176 W/m2
12:39 4.6 °C -0.3 °C 1020.5 hPa Calm     70.7% 0.25 mm 243 W/m2
12:44 4.6 °C -0.2 °C 1020.5 hPa Calm     71% 0.25 mm 244 W/m2
12:49 4.7 °C -0.1 °C 1020.5 hPa Calm     71.3% 0.25 mm 179 W/m2
12:54 4.8 °C -0.1 °C 1020.2 hPa Calm     71% 0.25 mm 167 W/m2
12:59 4.8 °C 0 °C 1020.2 hPa Calm   1.6 km/h 71% 0.25 mm 167 W/m2
13:04 4.9 °C 0.1 °C 1020.2 hPa NW 0.2 km/h 3.2 km/h 71% 0.25 mm 139 W/m2
13:09 4.9 °C 0.1 °C 1020.2 hPa Calm   3.2 km/h 70.8% 0.25 mm 151 W/m2
13:14 5 °C 0.1 °C 1019.9 hPa Calm   3.2 km/h 70.3% 0.25 mm 162 W/m2
13:19 5.1 °C 0.1 °C 1019.9 hPa Calm   3.2 km/h 70.2% 0.25 mm 163 W/m2
13:24 5.1 °C 0.1 °C 1019.9 hPa Calm   3.2 km/h 70.2% 0.25 mm 135 W/m2
13:29 5.2 °C 0.2 °C 1019.9 hPa Calm   3.2 km/h 70.3% 0.25 mm 123 W/m2
13:34 5.2 °C 0.3 °C 1019.9 hPa Calm   3.2 km/h 70.7% 0.25 mm 123 W/m2
13:39 5.3 °C 0.4 °C 1019.5 hPa Calm     71% 0.25 mm 127 W/m2
13:44 5.4 °C 0.6 °C 1019.5 hPa Calm     71.1% 0.25 mm 128 W/m2
13:49 5.4 °C 0.5 °C 1019.5 hPa Calm     70.3% 0.25 mm 125 W/m2
13:54 5.5 °C 0.6 °C 1019.5 hPa Calm     70.8% 0.25 mm 125 W/m2
13:59 5.6 °C 0.9 °C 1019.5 hPa Calm     71.8% 0.25 mm 123 W/m2
14:04 5.7 °C 1.1 °C 1019.9 hPa Calm     72.3% 0.25 mm 116 W/m2
14:09 5.8 °C 1 °C 1019.9 hPa Calm     71.3% 0 mm 134 W/m2
14:14 5.9 °C 1.2 °C 1019.5 hPa Calm     71.9% 0 mm 137 W/m2
14:19 6 °C 1.1 °C 1019.5 hPa Calm     71% 0 mm 149 W/m2
14:24 6.1 °C 1.1 °C 1019.5 hPa Calm     70.5% 0 mm 248 W/m2
14:29 6.2 °C 1.2 °C 1019.9 hPa Calm     70.7% 0 mm 246 W/m2
14:34 6.3 °C 1.4 °C 1019.9 hPa Calm     71% 0 mm 90 W/m2
14:39 6.4 °C 1.6 °C 1019.9 hPa Calm     71% 0 mm 113 W/m2
14:44 6.6 °C 1.7 °C 1019.9 hPa Calm     71% 0 mm 109 W/m2
14:49 6.8 °C 1.9 °C 1019.9 hPa Calm     71% 0 mm 72 W/m2
14:54 6.8 °C 1.9 °C 1019.9 hPa Calm     70.6% 0 mm 74 W/m2
14:59 6.8 °C 1.7 °C 1019.9 hPa Calm     69.7% 0 mm 60 W/m2
15:04 6.8 °C 1.6 °C 1019.9 hPa Calm     69.8% 0 mm 58 W/m2
15:09 6.7 °C 1.7 °C 1019.9 hPa Calm     70% 0 mm 54 W/m2
15:14 6.7 °C 1.6 °C 1019.9 hPa Calm     70% 0 mm 49 W/m2
15:19 6.7 °C 1.8 °C 1020.2 hPa Calm     70.9% 0 mm 42 W/m2
15:24 6.6 °C 1.7 °C 1020.2 hPa Calm     71% 0 mm 40 W/m2
15:29 6.6 °C 1.7 °C 1020.2 hPa Calm     71% 0 mm 39 W/m2
15:34 6.6 °C 1.7 °C 1020.2 hPa Calm     71% 0 mm 39 W/m2
15:39 6.6 °C 1.8 °C 1020.2 hPa NW 0.2 km/h 1.6 km/h 71.6% 0 mm 39 W/m2
15:44 6.5 °C 1.6 °C 1020.2 hPa Calm   1.6 km/h 71% 0 mm 35 W/m2
15:49 6.5 °C 1.6 °C 1020.2 hPa NNW 1.9 km/h 6.4 km/h 71% 0 mm 26 W/m2
15:54 6.4 °C 1.4 °C 1020.2 hPa NNW 0.2 km/h 6.4 km/h 70.5% 0 mm 19 W/m2
15:59 6.3 °C 1.4 °C 1020.2 hPa Calm   6.4 km/h 70.6% 0 mm 18 W/m2
16:00 6.3 °C 1.2 °C 1020.2 hPa Calm   6.4 km/h 70% 0 mm 14 W/m2
16:09 6.1 °C 1.3 °C 1020.5 hPa Calm     71% 0 mm 9 W/m2
16:14 6.1 °C 1.2 °C 1020.5 hPa Calm     71% 0 mm 7 W/m2
16:19 5.9 °C 1.1 °C 1020.5 hPa Calm     71% 0 mm 0 W/m2
16:24 5.8 °C 1.1 °C 1020.5 hPa Calm     71.3% 0 mm 0 W/m2
16:29 5.8 °C 1.1 °C 1020.2 hPa Calm     72% 0 mm 0 W/m2
16:34 5.7 °C 1.1 °C 1020.2 hPa Calm     72.2% 0 mm 0 W/m2
16:39 5.6 °C 1.1 °C 1020.2 hPa NNW 0.2 km/h 3.2 km/h 73% 0 mm 0 W/m2
16:44 5.5 °C 1.1 °C 1020.5 hPa Calm   3.2 km/h 73% 0 mm 0 W/m2
16:49 5.4 °C 0.9 °C 1020.2 hPa Calm   3.2 km/h 73% 0 mm 0 W/m2
16:54 5.3 °C 0.8 °C 1020.5 hPa Calm   3.2 km/h 73% 0 mm 0 W/m2
16:59 5.2 °C 0.8 °C 1020.5 hPa Calm   3.2 km/h 73.4% 0 mm 0 W/m2
17:04 5.1 °C 0.8 °C 1020.5 hPa Calm   3.2 km/h 74% 0 mm 0 W/m2
17:09 4.9 °C 0.8 °C 1020.5 hPa Calm     74.8% 0 mm 0 W/m2
17:14 4.8 °C 0.7 °C 1020.5 hPa Calm     74.3% 0 mm 0 W/m2
17:19 4.7 °C 0.7 °C 1020.9 hPa Calm     75% 0 mm 0 W/m2
17:24 4.6 °C 0.7 °C 1020.9 hPa Calm     75.5% 0 mm 0 W/m2
17:29 4.5 °C 0.6 °C 1020.9 hPa Calm     76% 0 mm 0 W/m2
17:34 4.4 °C 0.7 °C 1020.9 hPa Calm     76.8% 0 mm 0 W/m2
17:39 4.3 °C 0.6 °C 1020.9 hPa Calm     77% 0 mm 0 W/m2
17:44 4.2 °C 0.5 °C 1020.5 hPa Calm     77% 0 mm 0 W/m2
17:49 4 °C 0.4 °C 1020.5 hPa Calm     77.4% 0 mm 0 W/m2
17:54 3.9 °C 0.4 °C 1020.5 hPa Calm     78% 0 mm 0 W/m2
17:59 3.8 °C 0.3 °C 1020.5 hPa Calm     78% 0 mm 0 W/m2
18:04 3.7 °C 0.3 °C 1020.5 hPa Calm     78.1% 0 mm 0 W/m2
18:09 3.7 °C 0.3 °C 1020.5 hPa Calm     78.8% 0 mm 0 W/m2
18:14 3.6 °C 0.3 °C 1020.5 hPa Calm     79% 0 mm 0 W/m2
18:19 3.5 °C 0.2 °C 1020.5 hPa Calm     79% 0 mm 0 W/m2
18:24 3.4 °C 0.3 °C 1020.5 hPa Calm     79.7% 0 mm 0 W/m2
18:29 3.3 °C 0.2 °C 1020.5 hPa Calm     80% 0 mm 0 W/m2
18:34 3.2 °C 0.1 °C 1020.5 hPa Calm     80% 0 mm 0 W/m2
18:39 3.2 °C 0.1 °C 1020.5 hPa Calm     80% 0 mm 0 W/m2
18:44 3.1 °C 0.1 °C 1020.5 hPa Calm     80.8% 0 mm 0 W/m2
18:49 3 °C 0.1 °C 1020.5 hPa Calm     80.8% 0 mm 0 W/m2
18:54 2.9 °C 0 °C 1020.5 hPa Calm     81% 0 mm 0 W/m2
18:59 2.8 °C -0.1 °C 1020.5 hPa Calm     81% 0 mm 0 W/m2
19:04 2.7 °C -0.1 °C 1020.5 hPa Calm     81.7% 0 mm 0 W/m2
19:09 2.6 °C -0.2 °C 1020.5 hPa Calm     82% 0 mm 0 W/m2
19:14 2.5 °C -0.2 °C 1020.5 hPa Calm     82.6% 0 mm 0 W/m2
19:19 2.4 °C -0.2 °C 1020.5 hPa Calm     83% 0 mm 0 W/m2
19:24 2.3 °C -0.2 °C 1020.5 hPa Calm     83% 0 mm 0 W/m2
19:29 2.3 °C -0.3 °C 1020.9 hPa NNW 0.2 km/h 4.8 km/h 83.2% 0 mm 0 W/m2
19:34 2.2 °C -0.2 °C 1020.9 hPa Calm   4.8 km/h 84% 0 mm 0 W/m2
19:39 2.2 °C -0.2 °C 1021.2 hPa Calm     84% 0 mm 0 W/m2
19:44 2.1 °C -0.3 °C 1021.2 hPa Calm     84% 0 mm 0 W/m2
19:49 2.1 °C -0.4 °C 1021.2 hPa Calm     84% 0 mm 0 W/m2
19:54 2 °C -0.4 °C 1021.2 hPa Calm     84% 0 mm 0 W/m2
19:59 1.9 °C -0.5 °C 1021.2 hPa Calm     84% 0 mm 0 W/m2
20:00 1.9 °C -0.5 °C 1020.9 hPa Calm     84% 0 mm 0 W/m2
20:09 1.8 °C -0.6 °C 1020.9 hPa Calm     84.3% 0 mm 0 W/m2
20:14 1.7 °C -0.5 °C 1020.9 hPa Calm     85% 0 mm 0 W/m2
20:19 1.7 °C -0.6 °C 1020.9 hPa Calm     85% 0 mm 0 W/m2
20:24 1.6 °C -0.6 °C 1020.9 hPa Calm     85% 0 mm 0 W/m2
20:29 1.5 °C -0.7 °C 1020.9 hPa Calm     85% 0 mm 0 W/m2
20:34 1.4 °C -0.8 °C 1020.9 hPa Calm     85% 0 mm 0 W/m2
20:39 1.3 °C -0.9 °C 1020.5 hPa Calm     85.4% 0 mm 0 W/m2
20:44 1.2 °C -0.9 °C 1020.5 hPa Calm     86% 0 mm 0 W/m2
20:49 1.1 °C -0.9 °C 1020.9 hPa Calm     86.3% 0 mm 0 W/m2
20:54 1.1 °C -0.9 °C 1020.9 hPa Calm     86.7% 0 mm 0 W/m2
20:59 1 °C -0.9 °C 1020.9 hPa Calm     87% 0 mm 0 W/m2
21:04 0.9 °C -0.9 °C 1020.9 hPa Calm     87% 0 mm 0 W/m2
21:09 0.9 °C -0.9 °C 1020.9 hPa Calm     87.2% 0 mm 0 W/m2
21:14 0.9 °C -0.8 °C 1020.9 hPa Calm     88% 0 mm 0 W/m2
21:19 0.9 °C -0.8 °C 1020.9 hPa Calm     87.8% 0 mm 0 W/m2
21:24 0.8 °C -1.1 °C 1020.9 hPa Calm     87% 0 mm 0 W/m2
21:29 0.8 °C -1.1 °C 1020.9 hPa Calm     87.6% 0 mm 0 W/m2
21:34 0.7 °C -1.1 °C 1020.9 hPa Calm     88% 0 mm 0 W/m2
21:39 0.6 °C -1.2 °C 1021.2 hPa Calm     88% 0 mm 0 W/m2
21:44 0.5 °C -1.2 °C 1020.9 hPa Calm     88% 0 mm 0 W/m2
21:49 0.4 °C -1.3 °C 1020.5 hPa Calm     88% 0 mm 0 W/m2
21:54 0.4 °C -1.3 °C 1020.5 hPa Calm     88% 0 mm 0 W/m2
21:59 0.4 °C -1.3 °C 1020.2 hPa Calm     88.5% 0 mm 0 W/m2
22:04 0.3 °C -1.2 °C 1020.2 hPa Calm     89% 0 mm 0 W/m2
22:09 0.3 °C -1.3 °C 1020.2 hPa Calm     89% 0 mm 0 W/m2
22:14 0.3 °C -1.3 °C 1020.5 hPa Calm     89% 0 mm 0 W/m2
22:19 0.3 °C -1.3 °C 1020.5 hPa Calm     89% 0 mm 0 W/m2
22:24 0.3 °C -1.3 °C 1020.5 hPa Calm     89% 0 mm 0 W/m2
22:29 0.2 °C -1.3 °C 1020.2 hPa Calm     89.5% 0 mm 0 W/m2
22:34 0.3 °C -1.2 °C 1020.2 hPa Calm     90% 0 mm 0 W/m2
22:39 0.3 °C -1.2 °C 1020.2 hPa Calm     90% 0 mm 0 W/m2
22:44 0.3 °C -1.1 °C 1020.2 hPa Calm     90% 0 mm 0 W/m2
22:49 0.4 °C -1.1 °C 1020.2 hPa Calm     90% 0 mm 0 W/m2
22:54 0.4 °C -1 °C 1019.9 hPa Calm     90.2% 0 mm 0 W/m2
22:59 0.5 °C -0.8 °C 1019.9 hPa Calm     91% 0 mm 0 W/m2
23:00 0.5 °C -0.8 °C 1019.9 hPa Calm     91% 0 mm 0 W/m2
23:09 0.5 °C -0.8 °C 1020.2 hPa NNW 0.5 km/h 3.2 km/h 90.9% 0 mm 0 W/m2
23:14 0.5 °C -0.9 °C 1020.2 hPa Calm   3.2 km/h 90.2% 0 mm 0 W/m2
23:19 0.4 °C -0.9 °C 1019.9 hPa Calm   3.2 km/h 90.4% 0 mm 0 W/m2
23:24 0.4 °C -0.8 °C 1019.9 hPa Calm   3.2 km/h 91% 0 mm 0 W/m2
23:29 0.4 °C -0.8 °C 1019.9 hPa Calm   3.2 km/h 91% 0 mm 0 W/m2
23:34 0.4 °C -0.8 °C 1019.9 hPa Calm   3.2 km/h 91% 0 mm 0 W/m2
23:39 0.4 °C -0.9 °C 1019.9 hPa Calm     90.5% 0 mm 0 W/m2
23:44 0.3 °C -1.1 °C 1019.9 hPa Calm     90% 0 mm 0 W/m2
23:49 0.3 °C -1.1 °C 1019.5 hPa Calm     90% 0 mm 0 W/m2
23:53 0.3 °C -1.2 °C 1019.2 hPa Calm     90% 0 mm 0 W/m2
Hartford County Weather
Compliments of Weather Underground - 2 mb